x

West Dixon Entrance (46205) Wave Buoy

5:00pm - Mon 6th Jul 2015 All times are PDT. -7 hours from GMT.

  • Sig Wave height 7.2ft
  • Peak Period 7s
  • Wind
    22mph, 27mph gusts
  • Sea Temp 58°f
  • Air Temp 57°f
  • Sea Pressure 1019.8mb
  • West Dixon Entrance
  • West Dixon Entrance

More Historic Weather Station data

Upgrade to MSW Pro to gain access to the past 30 days of data for over 8000 Wavebouys and Weather Stations around the globe.

Join Pro

Comparision Forecast

View Surf forecast
   
Mon 07/06 5:00pm 7ft 7s 22 27 mph 1019.8mb 58f 57f
4:00pm 6.5ft 7s 22 27 mph 1020mb 58f 57f
3:00pm 6ft 7s 22 27 mph 1020.3mb 58f 57f
2:00pm 7ft 7s 20 25 mph 1020.4mb 58f 57f
1:00pm 6ft 7s 25 29 mph 1020.2mb 58f 57f
12:00pm 6.5ft 7s 25 27 mph 1020.2mb 58f 57f
11:00am 7ft 7s 25 29 mph 1020mb 58f 57f
10:00am 7ft 7s 22 29 mph 1019.8mb 58f 57f
9:00am 7ft 7s 22
mph
1019.7mb 58f 57f
8:00am 6.5ft 6s 22 29 mph 1019.4mb 58f 58f
7:00am 7ft 7s 25 27 mph 1019.1mb 58f 58f
6:00am 7ft 6s 22 27 mph 1019mb 58f 58f
5:00am 6.5ft 6s 22 31 mph 1019mb 58f 58f
4:00am 6ft 6s 22 27 mph 1019.1mb 58f 58f
3:00am 5.5ft 6s 20 27 mph 1019.2mb 58f 58f
2:00am 5ft 6s 22 29 mph 1019mb 58f 58f
1:00am 5ft 6s 20 22 mph 1019.5mb 58f 57f
12:00am 5ft 6s 22
mph
1019.5mb 58f 57f
Sun 07/05 11:00pm 5ft 6s 20 25 mph 1019.8mb 58f 57f
10:00pm 5.5ft 5s 22 27 mph 1019.7mb 58f 57f
9:00pm  -   -  22
mph
1019.8mb - 57f
8:00pm 6ft 5s 22 27 mph 1019.8mb 58f 57f
7:00pm 5.5ft 5s 22 27 mph 1020.1mb 58f 56f
6:00pm 6ft 5s 22 25 mph 1020.5mb 58f 57f
5:00pm 5.5ft 5s 20 27 mph 1020.9mb 58f 57f
4:00pm 5ft 5s 20 22 mph 1021.1mb 58f 57f
3:00pm 4.5ft 9s 20 25 mph 1021.2mb 58f 56f
2:00pm 4.5ft 9s 20 22 mph 1021.4mb 58f 57f
1:00pm 4.5ft 8s 22 25 mph 1021.6mb 58f 57f
12:00pm 4.5ft 10s 22 27 mph 1021.8mb 58f 57f
11:00am 4ft 9s 18 20 mph 1022.2mb 58f 56f
10:00am 4.5ft 10s 18 22 mph 1022.1mb 58f 56f
9:00am 4ft 9s 18 22 mph 1022.1mb 58f 56f
8:00am 4ft 8s 18 22 mph 1022.1mb 58f 56f
7:00am 4ft 10s 18 22 mph 1022.1mb 58f 56f
6:00am 4ft 9s 18 22 mph 1022mb 58f 57f
5:00am 4ft 9s 16 18 mph 1022mb 58f 57f
4:00am 3.5ft 9s 13 16 mph 1022.3mb 58f 57f
3:00am 4ft 10s 16 20 mph 1022.5mb 58f 56f
2:00am 3.5ft 10s 18 20 mph 1022.7mb 57f 56f
1:00am 3.5ft 10s 16 18 mph 1023mb 57f 56f
12:00am 3.5ft 8s 16 18 mph 1023.5mb 58f 57f
Sat 07/04 11:00pm 3.5ft 9s 13 16 mph 1023.7mb 58f 57f
10:00pm 3.5ft 8s 13 16 mph 1023.8mb 58f 57f
9:00pm 3.5ft 10s 13 18 mph 1023.9mb 58f 58f
8:00pm 3.5ft 10s 16 18 mph 1024mb 58f 58f
7:00pm 3.5ft 8s 13 16 mph 1023.8mb 58f 58f
6:00pm 3.5ft 8s 13 18 mph 1024mb 58f 58f
5:00pm 3.5ft 10s 13 16 mph 1024.4mb 57f 58f
4:00pm 3.5ft 7s 13 16 mph 1024.5mb 57f 57f
3:00pm 3ft 10s 13 16 mph 1024.6mb 57f 57f
2:00pm 3ft 14s 13
mph
1025.1mb 57f 57f
1:00pm 3ft 14s 11 13 mph 1025.1mb 57f 57f
12:00pm 3ft 16s 11 13 mph 1025.2mb 57f 57f
11:00am 3.5ft 7s 11 13 mph 1025.5mb 57f 57f
10:00am 3.5ft 15s 11 13 mph 1025.5mb 57f 57f
9:00am 3ft 7s 11 13 mph 1025.6mb 57f 57f
6:00am 3ft 7s 9 11 mph 1024.7mb 57f 56f
5:00am 3.5ft 7s 11 13 mph 1024.6mb 57f 56f
4:00am 3ft 15s 9 11 mph 1024.5mb 57f 56f
3:00am 3ft 7s 11 13 mph 1024.6mb 57f 56f
2:00am 3ft 7s 11 13 mph 1024.4mb 57f 56f
1:00am 3ft 15s 11 16 mph 1024.6mb 57f 56f
12:00am 3ft 6s 13
mph
1024.8mb 57f 56f
Fri 07/03 11:00pm 3ft 6s 13 16 mph 1024.8mb 57f 56f
10:00pm 3.5ft 7s 16 18 mph 1024.7mb 57f 56f
9:00pm 3.5ft 7s 13 18 mph 1025mb 57f 56f
8:00pm 3.5ft 6s 16 18 mph 1025.2mb 57f 57f
7:00pm 3.5ft 7s 13 18 mph 1025.1mb 57f 57f
6:00pm 3.5ft 6s 13 18 mph 1025.1mb 57f 57f
5:00pm 3.5ft 6s 13 18 mph 1025.2mb 57f 57f
4:00pm 3.5ft 7s 13 18 mph 1025.4mb 57f 56f
3:00pm 3.5ft 7s 13 16 mph 1025.6mb 57f 56f
2:00pm 3.5ft 7s 13 18 mph 1025.9mb 57f 56f
1:00pm 3.5ft 7s 16 18 mph 1025.9mb 57f 56f
12:00pm 3.5ft 8s 13 16 mph 1026.1mb 57f 56f
11:00am 3.5ft 7s 11 13 mph 1026mb 57f 56f
10:00am 4ft 7s 11 13 mph 1026.1mb 57f 56f
9:00am 4.5ft 7s 11 13 mph 1026.1mb 57f 56f
8:00am 4.5ft 7s 11 13 mph 1026.1mb 57f 56f
7:00am 4.5ft 7s 11 13 mph 1025.8mb 57f 56f
6:00am 5ft 8s 7 9 mph 1025.7mb 57f 56f
5:00am 5ft 8s 11
mph
1025.5mb 57f 56f
4:00am 5ft 8s 11 16 mph 1025.6mb 57f 55f
3:00am 5.5ft 8s 11 16 mph 1025.6mb 57f 55f
2:00am 5ft 8s 9 13 mph 1025.7mb 57f 55f